Time;durP1;ratioP1;P1;durP2;ratioP2;P2;SDS_P1;SDS_P2;PMS_P1;PMS_P2;Temp;Humidity;BMP_temperature;BMP_pressure;BME280_temperature;BME280_humidity;BME280_pressure;Samples;Min_cycle;Max_cycle;Signal;HPM_P1;HPM_P2
2021/10/04 00:01:17;;;;;;;0.40;0.40;;;14.80;99.90;;;;;;5002823;28;20171;-78
2021/10/04 00:03:42;;;;;;;2.30;0.60;;;14.80;99.90;;;;;;5019905;28;20199;-78
2021/10/04 00:06:09;;;;;;;0.60;0.60;;;14.80;99.90;;;;;;5020487;28;20198;-78
2021/10/04 00:08:36;;;;;;;1.00;0.70;;;14.80;99.90;;;;;;5020103;28;20167;-78
2021/10/04 00:11:02;;;;;;;1.53;0.50;;;14.90;99.90;;;;;;5021463;28;20250;-78
2021/10/04 00:13:27;;;;;;;0.80;0.80;;;14.80;99.90;;;;;;5022522;28;20175;-78
2021/10/04 00:15:53;;;;;;;1.17;0.70;;;14.80;99.90;;;;;;5002825;28;20210;-78
2021/10/04 00:18:19;;;;;;;0.50;0.20;;;14.80;99.90;;;;;;5018319;28;20171;-78
2021/10/04 00:20:45;;;;;;;0.30;0.30;;;14.80;99.90;;;;;;5019777;28;20187;-78
2021/10/04 00:23:10;;;;;;;1.37;0.40;;;14.80;99.90;;;;;;5004982;28;20548;-78
2021/10/04 00:25:36;;;;;;;0.33;0.30;;;14.90;99.90;;;;;;5019929;28;20187;-78
2021/10/04 00:28:03;;;;;;;0.30;0.30;;;14.80;99.90;;;;;;5019455;28;20175;-78
2021/10/04 00:30:29;;;;;;;0.20;0.20;;;14.80;99.90;;;;;;5019839;28;20178;-78
2021/10/04 00:32:55;;;;;;;0.73;0.40;;;14.80;99.90;;;;;;5019478;28;20221;-78
2021/10/04 00:35:23;;;;;;;0.30;0.30;;;14.80;99.90;;;;;;5001590;28;20207;-78
2021/10/04 00:37:51;;;;;;;0.43;0.43;;;14.70;99.90;;;;;;5019567;28;20646;-78
2021/10/04 00:40:22;;;;;;;0.30;0.30;;;14.70;99.90;;;;;;5019314;28;20620;-78
2021/10/04 00:42:48;;;;;;;0.63;0.47;;;14.60;99.90;;;;;;5001944;28;20195;-78
2021/10/04 00:45:14;;;;;;;0.93;0.40;;;14.60;99.90;;;;;;5001391;28;20237;-78
2021/10/04 00:47:40;;;;;;;0.40;0.40;;;14.60;99.90;;;;;;5001948;28;20203;-76
2021/10/04 00:50:09;;;;;;;0.40;0.30;;;14.60;99.90;;;;;;5019197;28;20168;-78
2021/10/04 00:52:35;;;;;;;0.70;0.60;;;14.60;99.90;;;;;;5018818;28;20171;-78
2021/10/04 00:55:01;;;;;;;0.67;0.43;;;14.50;99.90;;;;;;5018783;28;20670;-78
2021/10/04 00:57:28;;;;;;;0.40;0.40;;;14.60;99.90;;;;;;5001069;28;20539;-78
2021/10/04 00:59:53;;;;;;;0.37;0.37;;;14.60;99.90;;;;;;5002302;28;20167;-78
2021/10/04 01:02:19;;;;;;;0.40;0.40;;;14.50;99.90;;;;;;5018680;28;20182;-78
2021/10/04 01:04:45;;;;;;;0.40;0.30;;;14.50;99.90;;;;;;5001651;28;20615;-78
2021/10/04 01:07:11;;;;;;;0.50;0.40;;;14.60;99.90;;;;;;5018153;28;20547;-78
2021/10/04 01:09:37;;;;;;;0.40;0.30;;;14.60;99.90;;;;;;4996323;28;20168;-78
2021/10/04 01:12:04;;;;;;;0.73;0.30;;;14.50;99.90;;;;;;5010091;28;20182;-78
2021/10/04 01:14:30;;;;;;;0.30;0.30;;;14.50;99.90;;;;;;5000697;28;20230;-78
2021/10/04 01:16:56;;;;;;;0.43;0.33;;;14.50;99.90;;;;;;5024532;28;20171;-78
2021/10/04 01:19:22;;;;;;;0.57;0.40;;;14.40;99.90;;;;;;5008685;28;20264;-78
2021/10/04 01:21:47;;;;;;;0.90;0.40;;;14.40;99.90;;;;;;5024488;28;20183;-78
2021/10/04 01:24:14;;;;;;;0.40;0.40;;;14.30;99.90;;;;;;5021174;28;20195;-78
2021/10/04 01:26:40;;;;;;;0.40;0.40;;;14.30;99.90;;;;;;5020842;28;20229;-78
2021/10/04 01:29:06;;;;;;;0.20;0.20;;;14.30;99.90;;;;;;5004511;28;20179;-78
2021/10/04 01:31:32;;;;;;;1.17;0.40;;;14.30;99.90;;;;;;5003530;28;20202;-78
2021/10/04 01:33:59;;;;;;;0.87;0.57;;;14.30;99.90;;;;;;5021162;28;20199;-78
2021/10/04 01:36:26;;;;;;;0.53;0.50;;;14.30;99.90;;;;;;5003340;28;20215;-78
2021/10/04 01:38:53;;;;;;;0.97;0.80;;;14.20;99.90;;;;;;5021183;28;20179;-78
2021/10/04 01:41:19;;;;;;;1.73;0.50;;;14.30;99.90;;;;;;5003327;28;20575;-78
2021/10/04 01:43:45;;;;;;;0.40;0.40;;;14.30;99.90;;;;;;5020507;28;20199;-78
2021/10/04 01:46:11;;;;;;;0.60;0.50;;;14.20;99.90;;;;;;5003571;28;20197;-78
2021/10/04 01:48:36;;;;;;;0.47;0.47;;;14.20;99.90;;;;;;5003216;28;20549;-78
2021/10/04 01:51:02;;;;;;;0.97;0.50;;;14.20;99.90;;;;;;5021361;28;20179;-78
2021/10/04 01:53:28;;;;;;;0.90;0.90;;;14.20;99.90;;;;;;5021274;28;20237;-78
2021/10/04 01:55:54;;;;;;;1.30;1.00;;;14.20;99.90;;;;;;5020041;28;20207;-78
2021/10/04 01:58:20;;;;;;;2.07;0.80;;;14.20;99.90;;;;;;5002252;28;20179;-79
2021/10/04 02:00:46;;;;;;;0.93;0.60;;;14.20;99.90;;;;;;5020073;28;20194;-78
2021/10/04 02:03:12;;;;;;;3.53;0.70;;;14.30;99.90;;;;;;5001067;28;20202;-78
2021/10/04 02:05:37;;;;;;;0.83;0.40;;;14.20;99.90;;;;;;4996833;28;20640;-78
2021/10/04 02:08:03;;;;;;;0.80;0.70;;;14.20;99.90;;;;;;5007477;28;20190;-79
2021/10/04 02:10:36;;;;;;;2.23;0.60;;;14.20;99.90;;;;;;5018390;28;20171;-78
2021/10/04 02:13:05;;;;;;;0.67;0.50;;;14.10;99.90;;;;;;5018802;28;20186;-78
2021/10/04 02:15:31;;;;;;;1.57;0.60;;;14.10;99.90;;;;;;5004523;28;20229;-78
2021/10/04 02:17:59;;;;;;;0.67;0.60;;;14.20;99.90;;;;;;5019368;28;20206;-78
2021/10/04 02:20:29;;;;;;;0.40;0.40;;;14.20;99.90;;;;;;5022920;28;20209;-78
2021/10/04 02:22:56;;;;;;;1.97;0.67;;;14.20;99.90;;;;;;5024592;28;20198;-78
2021/10/04 02:25:22;;;;;;;0.73;0.70;;;14.00;99.90;;;;;;5024233;28;20250;-78
2021/10/04 02:27:48;;;;;;;1.33;0.60;;;14.00;99.90;;;;;;5001965;28;20175;-78
2021/10/04 02:30:21;;;;;;;0.70;0.63;;;14.00;99.90;;;;;;5022258;28;20210;-78
2021/10/04 02:32:47;;;;;;;0.80;0.77;;;13.90;99.90;;;;;;5002094;28;20191;-78
2021/10/04 02:35:13;;;;;;;1.43;0.60;;;13.90;99.90;;;;;;5003581;28;20586;-78
2021/10/04 02:37:39;;;;;;;0.57;0.57;;;13.90;99.90;;;;;;5019941;28;20183;-78
2021/10/04 02:40:07;;;;;;;0.83;0.60;;;13.90;99.90;;;;;;5021359;28;20182;-78
2021/10/04 02:42:33;;;;;;;1.03;0.70;;;13.90;99.90;;;;;;5018996;28;20242;-78
2021/10/04 02:44:59;;;;;;;0.73;0.40;;;14.00;99.90;;;;;;5019230;28;20199;-78
2021/10/04 02:47:25;;;;;;;0.83;0.40;;;13.90;99.90;;;;;;5002300;28;20190;-79
2021/10/04 02:49:51;;;;;;;0.40;0.33;;;13.90;99.90;;;;;;5020850;28;20181;-78
2021/10/04 02:52:17;;;;;;;2.00;0.30;;;13.90;99.90;;;;;;5019000;28;20214;-78
2021/10/04 02:54:44;;;;;;;2.37;0.30;;;13.80;99.90;;;;;;5020756;28;20207;-78
2021/10/04 02:57:10;;;;;;;0.27;0.20;;;13.70;99.90;;;;;;5003913;28;20190;-79
2021/10/04 02:59:36;;;;;;;0.20;0.20;;;13.70;99.90;;;;;;5021321;28;20179;-78
2021/10/04 03:02:02;;;;;;;0.40;0.30;;;13.70;99.90;;;;;;5020158;28;20186;-79
2021/10/04 03:04:28;;;;;;;0.30;0.30;;;13.70;99.90;;;;;;5021196;28;20234;-79
2021/10/04 03:06:54;;;;;;;0.67;0.37;;;13.70;99.90;;;;;;5021102;28;20519;-78
2021/10/04 03:09:19;;;;;;;0.60;0.47;;;13.60;99.90;;;;;;5020404;28;20177;-77
2021/10/04 03:11:45;;;;;;;0.37;0.30;;;13.60;99.90;;;;;;5020313;28;20187;-79
2021/10/04 03:14:12;;;;;;;1.90;0.47;;;13.60;99.90;;;;;;5019931;28;20590;-78
2021/10/04 03:16:38;;;;;;;0.87;0.33;;;13.50;99.90;;;;;;5019331;28;20729;-78
2021/10/04 03:19:03;;;;;;;0.30;0.30;;;13.50;99.90;;;;;;5019233;28;20198;-78
2021/10/04 03:21:29;;;;;;;1.53;0.30;;;13.40;99.90;;;;;;5020309;28;20171;-78
2021/10/04 03:23:55;;;;;;;0.97;0.40;;;13.40;99.90;;;;;;5021341;28;20569;-78
2021/10/04 03:26:20;;;;;;;2.07;0.30;;;13.40;99.90;;;;;;5021732;28;20194;-78
2021/10/04 03:28:46;;;;;;;0.37;0.30;;;13.50;99.90;;;;;;5021517;28;20198;-78
2021/10/04 03:31:12;;;;;;;1.43;0.30;;;13.40;99.90;;;;;;5019043;28;20635;-78
2021/10/04 03:33:37;;;;;;;1.00;0.40;;;13.40;99.90;;;;;;5020331;28;20214;-79
2021/10/04 03:36:03;;;;;;;0.67;0.30;;;13.40;99.90;;;;;;5019558;28;20222;-79
2021/10/04 03:38:29;;;;;;;2.67;0.40;;;13.40;99.90;;;;;;5020700;28;20179;-78
2021/10/04 03:40:55;;;;;;;1.20;0.40;;;13.20;99.90;;;;;;5017991;28;20175;-78
2021/10/04 03:43:21;;;;;;;1.40;0.40;;;13.20;99.90;;;;;;5019678;28;20199;-78
2021/10/04 03:45:46;;;;;;;0.70;0.37;;;13.10;99.90;;;;;;5002088;28;20199;-78
2021/10/04 03:48:12;;;;;;;0.80;0.37;;;13.10;99.90;;;;;;5019762;28;20261;-78
2021/10/04 03:50:38;;;;;;;1.83;0.40;;;13.10;99.90;;;;;;5019730;28;20191;-78
2021/10/04 03:53:04;;;;;;;1.27;0.40;;;13.20;99.90;;;;;;5002118;28;20199;-78
2021/10/04 03:55:29;;;;;;;1.87;0.37;;;13.20;99.90;;;;;;5002540;28;20205;-79
2021/10/04 03:57:55;;;;;;;0.87;0.30;;;13.20;99.90;;;;;;5003321;28;20183;-78
2021/10/04 04:00:23;;;;;;;0.47;0.30;;;13.10;99.90;;;;;;5018286;28;20584;-77
2021/10/04 04:02:49;;;;;;;0.50;0.30;;;13.10;99.90;;;;;;5008596;28;20254;-78
2021/10/04 04:05:15;;;;;;;1.13;0.40;;;13.10;99.90;;;;;;5009423;28;20199;-78
2021/10/04 04:07:41;;;;;;;1.50;0.50;;;13.10;99.90;;;;;;5010210;28;20175;-77
2021/10/04 04:10:09;;;;;;;0.73;0.50;;;13.10;99.90;;;;;;5002288;28;20305;-78
2021/10/04 04:12:35;;;;;;;0.43;0.23;;;13.20;99.90;;;;;;5002280;28;20172;-78
2021/10/04 04:15:01;;;;;;;0.50;0.30;;;13.10;99.90;;;;;;5004395;28;20195;-78
2021/10/04 04:17:27;;;;;;;0.67;0.40;;;13.10;99.90;;;;;;5020037;28;20182;-78
2021/10/04 04:19:52;;;;;;;0.90;0.60;;;13.10;99.90;;;;;;5004690;28;20171;-78
2021/10/04 04:22:18;;;;;;;1.73;0.53;;;13.10;99.90;;;;;;5021814;28;20172;-78
2021/10/04 04:24:43;;;;;;;1.77;0.60;;;13.00;99.90;;;;;;5023534;28;20214;-78
2021/10/04 04:27:09;;;;;;;4.13;0.47;;;13.00;99.90;;;;;;5021660;28;20187;-78
2021/10/04 04:29:36;;;;;;;1.00;0.40;;;13.10;99.90;;;;;;5022234;28;20183;-78
2021/10/04 04:32:05;;;;;;;0.60;0.57;;;13.10;99.90;;;;;;5015389;28;20175;-78
2021/10/04 04:34:31;;;;;;;3.37;0.50;;;13.10;99.90;;;;;;5002736;28;20696;-78
2021/10/04 04:36:57;;;;;;;0.40;0.30;;;13.10;99.90;;;;;;5021400;28;20179;-78
2021/10/04 04:39:23;;;;;;;2.10;0.30;;;13.10;99.90;;;;;;5020568;28;20649;-78
2021/10/04 04:41:49;;;;;;;0.40;0.40;;;13.10;99.90;;;;;;5018357;28;20187;-78
2021/10/04 04:44:14;;;;;;;1.03;0.30;;;13.00;99.90;;;;;;5002401;28;20198;-78
2021/10/04 04:46:40;;;;;;;0.40;0.40;;;13.00;99.90;;;;;;5012326;28;20237;-78
2021/10/04 04:49:06;;;;;;;0.30;0.30;;;13.10;99.90;;;;;;5022118;28;20220;-78
2021/10/04 04:51:31;;;;;;;1.30;0.33;;;13.10;99.90;;;;;;5004564;28;20183;-78
2021/10/04 04:53:57;;;;;;;0.93;0.40;;;13.00;99.90;;;;;;5004715;28;20182;-78
2021/10/04 04:56:23;;;;;;;0.90;0.50;;;13.00;99.90;;;;;;5005201;28;20196;-78
2021/10/04 04:58:48;;;;;;;1.03;0.40;;;13.00;99.90;;;;;;5016120;28;20179;-78
2021/10/04 05:01:14;;;;;;;0.57;0.40;;;13.00;99.90;;;;;;5005148;28;20175;-77
2021/10/04 05:03:40;;;;;;;0.30;0.30;;;13.00;99.90;;;;;;5005094;28;20199;-78
2021/10/04 05:06:06;;;;;;;1.20;0.30;;;13.10;99.90;;;;;;5003322;28;20571;-78
2021/10/04 05:08:31;;;;;;;1.50;0.40;;;13.00;99.90;;;;;;5013294;28;20176;-78
2021/10/04 05:10:57;;;;;;;0.40;0.30;;;12.90;99.90;;;;;;5018947;28;20179;-78
2021/10/04 05:13:23;;;;;;;1.80;0.57;;;12.90;99.90;;;;;;5018598;28;20206;-78
2021/10/04 05:15:48;;;;;;;0.37;0.37;;;12.90;99.90;;;;;;4999425;28;20230;-78
2021/10/04 05:18:14;;;;;;;1.57;0.50;;;12.90;99.90;;;;;;5014075;28;20186;-78
2021/10/04 05:20:40;;;;;;;0.30;0.30;;;13.00;99.90;;;;;;5005129;28;20290;-78
2021/10/04 05:23:05;;;;;;;0.60;0.30;;;13.00;99.90;;;;;;5015855;28;20217;-78
2021/10/04 05:25:31;;;;;;;2.30;0.37;;;12.90;99.90;;;;;;5016485;28;20277;-78
2021/10/04 05:27:57;;;;;;;0.80;0.50;;;13.00;99.90;;;;;;5016583;28;20175;-77
2021/10/04 05:30:23;;;;;;;2.20;0.50;;;12.90;99.90;;;;;;5014198;28;20190;-77
2021/10/04 05:32:49;;;;;;;1.40;0.40;;;13.00;99.90;;;;;;5008778;28;20200;-78
2021/10/04 05:35:15;;;;;;;0.67;0.57;;;12.90;99.90;;;;;;5014580;28;20214;-78
2021/10/04 05:37:41;;;;;;;2.50;0.57;;;12.90;99.90;;;;;;4998008;28;20537;-78
2021/10/04 05:40:07;;;;;;;0.57;0.50;;;12.90;99.90;;;;;;5010068;28;20179;-77
2021/10/04 05:42:33;;;;;;;0.40;0.40;;;12.90;99.90;;;;;;5013102;28;20179;-77
2021/10/04 05:45:00;;;;;;;0.50;0.50;;;12.90;99.90;;;;;;5008439;28;20697;-77
2021/10/04 05:47:26;;;;;;;1.37;0.40;;;12.80;99.90;;;;;;4994693;28;20190;-77
2021/10/04 05:49:52;;;;;;;1.30;0.40;;;12.80;99.90;;;;;;4991805;28;20179;-77
2021/10/04 05:52:18;;;;;;;1.80;0.80;;;12.80;99.90;;;;;;5012086;28;20626;-77
2021/10/04 05:54:44;;;;;;;1.70;0.53;;;12.90;99.90;;;;;;5010634;28;20210;-77
2021/10/04 05:57:10;;;;;;;3.17;0.60;;;12.80;99.90;;;;;;5002676;28;20615;-77
2021/10/04 05:59:35;;;;;;;2.50;0.60;;;12.80;99.90;;;;;;5011016;28;20211;-78
2021/10/04 06:02:01;;;;;;;0.67;0.60;;;12.80;99.90;;;;;;5016153;28;20262;-78
2021/10/04 06:04:27;;;;;;;0.50;0.50;;;12.80;99.90;;;;;;5013146;28;20285;-78
2021/10/04 06:06:53;;;;;;;0.67;0.40;;;12.80;99.90;;;;;;5013877;28;20621;-77
2021/10/04 06:09:18;;;;;;;1.30;0.40;;;12.90;99.90;;;;;;5013447;28;20229;-77
2021/10/04 06:11:44;;;;;;;0.53;0.43;;;12.90;99.90;;;;;;5014155;28;20177;-78
2021/10/04 06:14:10;;;;;;;2.00;0.87;;;12.90;99.90;;;;;;4995415;28;20244;-77
2021/10/04 06:16:35;;;;;;;2.27;1.47;;;12.90;99.90;;;;;;5012746;28;20183;-78
2021/10/04 06:19:02;;;;;;;2.33;0.70;;;12.90;99.90;;;;;;5015300;28;20190;-77
2021/10/04 06:21:27;;;;;;;1.03;0.60;;;12.80;99.90;;;;;;5013952;28;20186;-77
2021/10/04 06:23:53;;;;;;;2.80;1.43;;;12.90;99.90;;;;;;4995129;28;20209;-77
2021/10/04 06:26:19;;;;;;;0.93;0.83;;;12.90;99.90;;;;;;5013955;28;20221;-77
2021/10/04 06:28:45;;;;;;;1.23;0.70;;;12.80;99.90;;;;;;5013586;28;20237;-77
2021/10/04 06:31:10;;;;;;;2.60;0.80;;;12.90;99.90;;;;;;5012849;28;20541;-77
2021/10/04 06:33:36;;;;;;;2.50;0.70;;;12.80;99.90;;;;;;5013277;28;20201;-77
2021/10/04 06:36:02;;;;;;;1.53;0.50;;;12.80;99.90;;;;;;5013171;28;20222;-77
2021/10/04 06:38:28;;;;;;;0.87;0.50;;;12.80;99.90;;;;;;5013074;28;20179;-78
2021/10/04 06:40:53;;;;;;;1.20;0.60;;;12.90;99.90;;;;;;5013221;28;20572;-78
2021/10/04 06:43:19;;;;;;;1.97;1.07;;;12.90;99.90;;;;;;5009496;28;20553;-77
2021/10/04 06:45:45;;;;;;;0.80;0.80;;;12.90;99.90;;;;;;5010617;28;20614;-77
2021/10/04 06:48:10;;;;;;;2.60;0.70;;;12.90;99.90;;;;;;5005092;28;20203;-77
2021/10/04 06:50:36;;;;;;;2.53;0.77;;;12.90;99.90;;;;;;5008372;28;20168;-78
2021/10/04 06:53:02;;;;;;;3.20;1.00;;;12.90;99.90;;;;;;4993929;28;20190;-77
2021/10/04 06:55:28;;;;;;;1.03;0.73;;;13.00;99.90;;;;;;5012488;28;20753;-78
2021/10/04 06:57:53;;;;;;;1.43;0.70;;;13.00;99.90;;;;;;5013461;28;20242;-78
2021/10/04 07:00:20;;;;;;;2.00;0.77;;;13.00;99.90;;;;;;4995998;28;20186;-78
2021/10/04 07:02:53;;;;;;;0.80;0.60;;;13.00;99.90;;;;;;5012340;28;20186;-78
2021/10/04 07:05:20;;;;;;;2.80;0.87;;;13.00;99.90;;;;;;5015083;28;20195;-78
2021/10/04 07:07:48;;;;;;;1.77;0.70;;;13.00;99.90;;;;;;5019462;28;20241;-78
2021/10/04 07:10:14;;;;;;;0.87;0.60;;;13.00;99.90;;;;;;5096001;23;20225;-82
2021/10/04 07:12:41;;;;;;;2.47;0.90;;;13.00;99.90;;;;;;5075710;28;20205;-81
2021/10/04 07:15:07;;;;;;;1.60;0.70;;;13.00;99.90;;;;;;5075657;28;20162;-81
2021/10/04 07:17:33;;;;;;;1.50;1.10;;;12.90;99.90;;;;;;5074202;28;20225;-80
2021/10/04 07:19:59;;;;;;;1.67;0.87;;;12.90;99.90;;;;;;5064125;28;20179;-81
2021/10/04 07:22:25;;;;;;;0.50;0.50;;;12.90;99.90;;;;;;5041212;28;20231;-80
2021/10/04 07:24:51;;;;;;;2.13;0.80;;;12.90;99.90;;;;;;5054317;28;20213;-81
2021/10/04 07:27:17;;;;;;;3.23;1.40;;;12.90;99.90;;;;;;5041767;28;20230;-81
2021/10/04 07:29:43;;;;;;;3.40;1.50;;;12.90;99.90;;;;;;5035116;28;20259;-81
2021/10/04 07:32:09;;;;;;;4.30;2.17;;;12.90;99.90;;;;;;5049503;28;20203;-80
2021/10/04 07:34:35;;;;;;;3.07;1.80;;;12.90;99.90;;;;;;5040928;28;20217;-81
2021/10/04 07:37:01;;;;;;;1.80;0.87;;;12.90;99.90;;;;;;5033630;28;20179;-81
2021/10/04 07:39:28;;;;;;;1.40;1.13;;;12.90;99.90;;;;;;5032075;28;20206;-81
2021/10/04 07:41:56;;;;;;;2.33;1.00;;;12.90;99.90;;;;;;5034987;28;20213;-81
2021/10/04 07:44:22;;;;;;;1.03;0.73;;;12.90;99.90;;;;;;5033134;28;20608;-80
2021/10/04 07:46:49;;;;;;;1.37;0.70;;;12.90;99.90;;;;;;5034439;28;20175;-80
2021/10/04 07:49:16;;;;;;;1.03;0.57;;;12.90;99.90;;;;;;5031895;28;20198;-81
2021/10/04 07:51:42;;;;;;;1.73;1.10;;;12.80;99.90;;;;;;5032125;28;20554;-81
2021/10/04 07:54:08;;;;;;;0.83;0.80;;;12.80;99.90;;;;;;5031140;28;20179;-80
2021/10/04 07:56:33;;;;;;;1.20;0.90;;;12.80;99.90;;;;;;5029981;28;20186;-80
2021/10/04 07:59:00;;;;;;;2.83;1.60;;;12.80;99.90;;;;;;5033907;28;20194;-79
2021/10/04 08:01:27;;;;;;;2.63;1.37;;;12.80;99.90;;;;;;5036842;28;20175;-80
2021/10/04 08:03:54;;;;;;;4.83;1.00;;;12.80;99.90;;;;;;5037772;28;20206;-80
2021/10/04 08:06:21;;;;;;;1.00;0.80;;;12.80;99.90;;;;;;5032516;28;20182;-80
2021/10/04 08:08:47;;;;;;;2.83;1.03;;;12.80;99.90;;;;;;5044986;28;20284;-80
2021/10/04 08:11:12;;;;;;;1.83;0.50;;;12.80;99.90;;;;;;5044264;28;20178;-81
2021/10/04 08:13:38;;;;;;;1.17;0.60;;;12.70;99.90;;;;;;5051891;28;20171;-80
2021/10/04 08:16:07;;;;;;;1.07;0.60;;;12.80;99.90;;;;;;5053838;28;20182;-81
2021/10/04 08:18:33;;;;;;;1.33;0.70;;;12.70;99.90;;;;;;5037237;28;20235;-80
2021/10/04 08:20:58;;;;;;;2.20;1.13;;;12.80;99.90;;;;;;5055091;28;20612;-81
2021/10/04 08:23:24;;;;;;;1.37;1.23;;;12.90;99.90;;;;;;5051988;28;20232;-81
2021/10/04 08:25:50;;;;;;;2.07;1.27;;;12.80;99.90;;;;;;5051111;28;20182;-80
2021/10/04 08:28:15;;;;;;;2.40;1.50;;;12.80;99.90;;;;;;5051194;28;20189;-81
2021/10/04 08:30:41;;;;;;;1.33;1.10;;;12.80;99.90;;;;;;5045439;28;20206;-81
2021/10/04 08:33:07;;;;;;;0.93;0.90;;;12.80;99.90;;;;;;5059936;28;20178;-80
2021/10/04 08:35:33;;;;;;;1.07;0.73;;;12.80;99.90;;;;;;5050717;28;20167;-80
2021/10/04 08:37:59;;;;;;;2.90;0.80;;;12.80;99.90;;;;;;5050808;28;20205;-81
2021/10/04 08:40:24;;;;;;;1.43;1.30;;;12.80;99.90;;;;;;5039434;28;20194;-81
2021/10/04 08:42:53;;;;;;;1.30;1.20;;;12.70;99.90;;;;;;5039598;28;20185;-80
2021/10/04 08:45:19;;;;;;;1.37;1.00;;;12.80;99.90;;;;;;5050988;28;20182;-80
2021/10/04 08:47:47;;;;;;;0.90;0.90;;;12.80;99.90;;;;;;5033928;28;20210;-80
2021/10/04 08:50:15;;;;;;;1.57;1.07;;;12.80;99.90;;;;;;5043795;28;20270;-81
2021/10/04 08:52:41;;;;;;;3.97;1.73;;;12.80;99.90;;;;;;5038038;28;20175;-80
2021/10/04 08:55:08;;;;;;;1.40;0.80;;;12.90;99.90;;;;;;5040133;28;20185;-80
2021/10/04 08:57:34;;;;;;;0.87;0.80;;;12.80;99.90;;;;;;5036470;28;20179;-81
2021/10/04 08:59:59;;;;;;;1.50;1.30;;;12.80;99.90;;;;;;5037910;28;20195;-80
2021/10/04 09:02:33;;;;;;;2.03;0.90;;;12.80;99.90;;;;;;5035500;28;20174;-81
2021/10/04 09:05:07;;;;;;;0.93;0.80;;;12.80;99.90;;;;;;5042568;28;20546;-81
2021/10/04 09:07:54;;;;;;;2.10;1.20;;;12.90;99.90;;;;;;5043770;28;20178;-80
2021/10/04 09:10:27;;;;;;;1.97;1.63;;;13.00;99.90;;;;;;5045302;28;20256;-80
2021/10/04 09:12:58;;;;;;;3.57;2.10;;;13.00;99.90;;;;;;5051131;28;20179;-80
2021/10/04 09:15:35;;;;;;;3.00;1.43;;;13.00;99.90;;;;;;5038562;28;20720;-81
2021/10/04 09:18:17;;;;;;;2.40;1.70;;;12.90;99.90;;;;;;5035909;28;20183;-80
2021/10/04 09:20:52;;;;;;;2.03;1.57;;;13.00;99.90;;;;;;5040173;28;20280;-81
2021/10/04 09:23:31;;;;;;;2.50;1.93;;;13.00;99.90;;;;;;5042195;28;20657;-80
2021/10/04 09:25:58;;;;;;;2.03;1.83;;;13.00;99.90;;;;;;5041244;28;20213;-80
2021/10/04 09:28:36;;;;;;;1.80;1.70;;;13.00;99.90;;;;;;5043917;28;20234;-80
2021/10/04 09:31:22;;;;;;;2.43;1.90;;;13.10;99.90;;;;;;5037855;28;20197;-79
2021/10/04 09:34:06;;;;;;;1.77;1.67;;;13.10;99.90;;;;;;5035350;28;20561;-78
2021/10/04 09:36:39;;;;;;;2.60;2.37;;;13.20;99.90;;;;;;5029957;28;20646;-79
2021/10/04 09:39:14;;;;;;;4.40;4.00;;;13.20;99.90;;;;;;5021433;28;20195;-78
2021/10/04 09:42:05;;;;;;;2.23;2.03;;;13.20;99.90;;;;;;5022900;28;20277;-79
2021/10/04 09:44:57;;;;;;;2.23;2.00;;;13.20;99.90;;;;;;5026831;28;20228;-78
2021/10/04 09:47:32;;;;;;;1.93;1.60;;;13.20;99.90;;;;;;5036095;28;20190;-78
2021/10/04 09:50:02;;;;;;;1.70;1.60;;;13.20;99.90;;;;;;5036831;28;20198;-79
2021/10/04 09:52:54;;;;;;;1.80;1.63;;;13.20;99.90;;;;;;5033568;28;20189;-79
2021/10/04 09:55:24;;;;;;;2.90;1.40;;;13.20;99.90;;;;;;5034558;28;20186;-78
2021/10/04 09:58:13;;;;;;;1.97;1.30;;;13.20;99.90;;;;;;5023867;28;20578;-79
2021/10/04 10:00:49;;;;;;;1.93;1.27;;;13.20;99.90;;;;;;5036327;28;20202;-79
2021/10/04 10:03:18;;;;;;;1.97;1.20;;;13.20;99.90;;;;;;5025894;28;20208;-78
2021/10/04 10:05:47;;;;;;;1.50;1.40;;;13.30;99.90;;;;;;5031300;28;20625;-79
2021/10/04 10:08:14;;;;;;;1.50;1.40;;;13.30;99.90;;;;;;5038393;28;20238;-80
2021/10/04 10:10:43;;;;;;;2.00;1.30;;;13.30;99.90;;;;;;5037466;28;20770;-78
2021/10/04 10:13:10;;;;;;;1.40;1.30;;;13.30;99.90;;;;;;5036930;28;20178;-79
2021/10/04 10:15:38;;;;;;;2.07;1.60;;;13.20;99.90;;;;;;5041673;28;20264;-79
2021/10/04 10:18:16;;;;;;;1.30;1.20;;;13.30;99.90;;;;;;5036912;28;20180;-78
2021/10/04 10:20:43;;;;;;;1.80;1.60;;;13.30;99.90;;;;;;5037925;28;20206;-79
2021/10/04 10:23:09;;;;;;;2.00;1.70;;;13.40;99.90;;;;;;5032976;28;20201;-79
2021/10/04 10:25:43;;;;;;;3.70;1.77;;;13.40;99.90;;;;;;5035248;28;20252;-80
2021/10/04 10:28:31;;;;;;;2.53;1.43;;;13.40;99.90;;;;;;5040841;28;20182;-80
2021/10/04 10:30:57;;;;;;;1.93;1.50;;;13.40;99.90;;;;;;5031911;28;20179;-79
2021/10/04 10:33:49;;;;;;;1.40;1.30;;;13.40;99.90;;;;;;5035786;28;20189;-81
2021/10/04 10:36:36;;;;;;;1.37;1.27;;;13.40;99.90;;;;;;5020719;28;20186;-79
2021/10/04 10:39:06;;;;;;;1.37;1.27;;;13.40;99.90;;;;;;5022917;28;20242;-79
2021/10/04 10:41:34;;;;;;;2.23;2.03;;;13.30;99.90;;;;;;5028068;28;20214;-80
2021/10/04 10:44:05;;;;;;;2.60;2.40;;;13.30;99.90;;;;;;5036460;28;20542;-80
2021/10/04 10:46:50;;;;;;;2.00;1.80;;;13.30;99.90;;;;;;5036173;28;20183;-78
2021/10/04 10:49:54;;;;;;;2.30;1.77;;;13.30;99.90;;;;;;5033912;28;20205;-78
2021/10/04 10:52:22;;;;;;;1.80;1.70;;;13.30;99.90;;;;;;5029220;28;20595;-79
2021/10/04 10:54:48;;;;;;;2.70;1.70;;;13.20;99.90;;;;;;5035966;28;20256;-80
2021/10/04 10:57:14;;;;;;;1.90;1.50;;;13.30;99.90;;;;;;5035078;28;20661;-81
2021/10/04 10:59:40;;;;;;;3.40;1.80;;;13.30;99.90;;;;;;5037990;28;20206;-79
2021/10/04 11:02:26;;;;;;;2.37;2.17;;;13.30;99.90;;;;;;5034881;28;20186;-78
2021/10/04 11:04:51;;;;;;;2.27;2.07;;;13.40;99.90;;;;;;5040858;28;20222;-80
2021/10/04 11:07:52;;;;;;;1.20;1.10;;;13.50;99.90;;;;;;5032986;28;20241;-78
2021/10/04 11:10:18;;;;;;;2.37;1.47;;;13.50;99.90;;;;;;5012775;28;20221;-79
2021/10/04 11:13:25;;;;;;;1.43;1.33;;;13.50;99.90;;;;;;5034031;28;20220;-79
2021/10/04 11:15:52;;;;;;;2.90;0.90;;;13.60;99.90;;;;;;5025835;28;20190;-78
2021/10/04 11:18:19;;;;;;;2.37;1.10;;;13.60;99.90;;;;;;5036645;28;20557;-79
2021/10/04 11:20:45;;;;;;;6.43;2.87;;;13.60;99.90;;;;;;5035101;28;20586;-80
2021/10/04 11:23:17;;;;;;;3.67;1.70;;;13.60;99.90;;;;;;5036850;28;20195;-80
2021/10/04 11:25:45;;;;;;;1.13;1.00;;;13.70;99.90;;;;;;5030741;28;20197;-79
2021/10/04 11:28:16;;;;;;;1.37;1.00;;;13.70;99.90;;;;;;5035497;28;20178;-78
2021/10/04 11:30:55;;;;;;;1.47;1.17;;;13.70;99.90;;;;;;5031490;28;20294;-79
2021/10/04 11:33:23;;;;;;;1.83;0.90;;;13.70;99.90;;;;;;5031532;28;20190;-79
2021/10/04 11:36:08;;;;;;;2.83;1.33;;;13.70;99.90;;;;;;5027706;28;20178;-79
2021/10/04 11:38:45;;;;;;;2.90;0.97;;;13.70;99.90;;;;;;5023378;28;20210;-79
2021/10/04 11:41:11;;;;;;;1.50;0.97;;;13.80;99.90;;;;;;5031612;28;20209;-79
2021/10/04 11:43:44;;;;;;;1.03;0.80;;;13.80;99.90;;;;;;5031704;28;20241;-79
2021/10/04 11:46:14;;;;;;;1.53;1.00;;;13.90;99.90;;;;;;5031465;28;20558;-79
2021/10/04 11:48:40;;;;;;;1.77;1.43;;;13.90;99.90;;;;;;5025829;28;20171;-79
2021/10/04 11:51:09;;;;;;;2.40;2.20;;;13.90;99.90;;;;;;5025705;28;20222;-78
2021/10/04 11:53:39;;;;;;;2.27;1.90;;;13.80;99.90;;;;;;5025982;28;20187;-78
2021/10/04 11:56:07;;;;;;;2.03;1.00;;;13.80;99.90;;;;;;5030577;28;20199;-79
2021/10/04 11:58:34;;;;;;;3.47;2.37;;;13.80;99.90;;;;;;5029377;28;20210;-79
2021/10/04 12:01:01;;;;;;;1.30;1.20;;;13.80;99.90;;;;;;5025576;28;20182;-79
2021/10/04 12:03:31;;;;;;;2.20;2.00;;;13.90;99.90;;;;;;5036181;28;20224;-79
2021/10/04 12:05:59;;;;;;;95.53;37.07;;;13.90;99.90;;;;;;5030688;28;20179;-79
2021/10/04 12:08:34;;;;;;;27.13;14.70;;;13.90;99.90;;;;;;5032373;28;20182;-79
2021/10/04 12:11:01;;;;;;;28.87;15.77;;;13.90;99.90;;;;;;5032135;28;20187;-82
2021/10/04 12:13:29;;;;;;;23.90;14.10;;;13.90;99.90;;;;;;5031586;28;20540;-78
2021/10/04 12:15:58;;;;;;;2.43;2.00;;;13.90;99.90;;;;;;5018823;28;20198;-78
2021/10/04 12:18:24;;;;;;;2.80;1.60;;;13.80;99.90;;;;;;5042530;28;20178;-79
2021/10/04 12:20:52;;;;;;;2.17;1.70;;;13.80;99.90;;;;;;5046018;28;20294;-79
2021/10/04 12:23:24;;;;;;;73.83;36.00;;;13.90;99.90;;;;;;5049161;28;20221;-79
2021/10/04 12:25:53;;;;;;;69.07;30.03;;;13.90;99.90;;;;;;5036446;28;20179;-80
2021/10/04 12:28:20;;;;;;;160.70;60.07;;;13.90;99.90;;;;;;5049945;28;20174;-79
2021/10/04 12:30:56;;;;;;;13.20;7.70;;;13.80;99.90;;;;;;5041293;28;20576;-79
2021/10/04 12:33:42;;;;;;;231.73;66.53;;;13.90;99.90;;;;;;5039942;28;20186;-80
2021/10/04 12:36:08;;;;;;;77.67;26.63;;;13.80;99.90;;;;;;5039441;28;20178;-82
2021/10/04 12:38:34;;;;;;;37.20;14.33;;;13.80;99.90;;;;;;5049354;28;20201;-83
2021/10/04 12:41:02;;;;;;;7.63;3.93;;;13.70;99.90;;;;;;5039138;28;20190;-81
2021/10/04 12:43:30;;;;;;;2.00;1.80;;;13.70;99.90;;;;;;5047976;28;20197;-81
2021/10/04 12:46:10;;;;;;;3.23;1.83;;;13.70;99.90;;;;;;5039725;28;20532;-82
2021/10/04 12:48:38;;;;;;;15.63;6.33;;;13.60;99.90;;;;;;5046095;28;20228;-82
2021/10/04 12:51:10;;;;;;;4.57;2.13;;;13.70;99.90;;;;;;5037808;28;20618;-82